Time;durP1;ratioP1;P1;durP2;ratioP2;P2;SDS_P1;SDS_P2;PMS_P1;PMS_P2;Temp;Humidity;BMP_temperature;BMP_pressure;BME280_temperature;BME280_humidity;BME280_pressure;Samples;Min_cycle;Max_cycle;Signal;HPM_P1;HPM_P2
2022/06/17 00:00:47;;;;;;;;;;;16.90;99.90;;;;;;5065999;28;19912;-60
2022/06/17 00:03:13;;;;;;;;;;;16.80;99.90;;;;;;5084483;28;19913;-61
2022/06/17 00:05:38;;;;;;;;;;;16.70;99.90;;;;;;5084949;28;19919;-61
2022/06/17 00:08:05;;;;;;;;;;;16.60;99.90;;;;;;5084535;28;19912;-61
2022/06/17 00:10:30;;;;;;;;;;;16.50;99.90;;;;;;5087245;28;19920;-61
2022/06/17 00:12:56;;;;;;;;;;;16.50;99.90;;;;;;5085480;28;19916;-61
2022/06/17 00:15:21;;;;;;;;;;;16.40;99.90;;;;;;5085884;28;19920;-61
2022/06/17 00:17:58;;;;;;;;;;;16.30;99.90;;;;;;5086960;28;20417;-61
2022/06/17 00:20:24;;;;;;;;;;;16.20;99.90;;;;;;5085958;28;19919;-61
2022/06/17 00:22:50;;;;;;;;;;;16.20;99.90;;;;;;5085050;28;20049;-60
2022/06/17 00:25:15;;;;;;;;;;;16.20;99.90;;;;;;5084733;28;20373;-62
2022/06/17 00:27:41;;;;;;;;;;;16.10;99.90;;;;;;5086437;28;19919;-61
2022/06/17 00:30:14;;;;;;;;;;;16.10;99.90;;;;;;5085001;28;19919;-61
2022/06/17 00:32:39;;;;;;;;;;;16.00;99.90;;;;;;5086812;28;20487;-61
2022/06/17 00:35:06;;;;;;;;;;;16.00;99.90;;;;;;5086878;28;20010;-62
2022/06/17 00:37:31;;;;;;;;;;;16.00;99.90;;;;;;5086443;28;19932;-61
2022/06/17 00:39:57;;;;;;;;;;;16.00;99.90;;;;;;5082908;28;19916;-61
2022/06/17 00:42:22;;;;;;;;;;;16.00;99.90;;;;;;5087377;28;19912;-61
2022/06/17 00:44:54;;;;;;;;;;;16.00;99.90;;;;;;5086141;28;20052;-61
2022/06/17 00:47:40;;;;;;;;;;;16.10;99.90;;;;;;5088889;28;19924;-61
2022/06/17 00:50:13;;;;;;;;;;;16.10;99.90;;;;;;5085503;28;19916;-60
2022/06/17 00:52:44;;;;;;;;;;;16.10;99.90;;;;;;5088189;28;20273;-61
2022/06/17 00:55:25;;;;;;;;;;;16.10;99.90;;;;;;5091286;28;20056;-61
2022/06/17 00:57:51;;;;;;;;;;;16.20;99.90;;;;;;5088715;28;19920;-61
2022/06/17 01:00:18;;;;;;;;;;;16.20;99.90;;;;;;5088993;28;19913;-62
2022/06/17 01:02:49;;;;;;;;;;;16.20;99.90;;;;;;5087456;28;19912;-61
2022/06/17 01:05:16;;;;;;;;;;;16.10;99.90;;;;;;5089028;28;19938;-60
2022/06/17 01:07:43;;;;;;;;;;;16.00;99.90;;;;;;5088939;28;20404;-61
2022/06/17 01:10:12;;;;;;;;;;;15.90;99.90;;;;;;5088529;28;19927;-61
2022/06/17 01:12:41;;;;;;;;;;;15.90;99.90;;;;;;5083490;28;19932;-62
2022/06/17 01:15:07;;;;;;;;;;;16.00;99.90;;;;;;5082665;28;20275;-62
2022/06/17 01:17:35;;;;;;;;;;;15.90;99.90;;;;;;5087610;28;19912;-61
2022/06/17 01:20:01;;;;;;;;;;;15.90;99.90;;;;;;5066783;28;19945;-61
2022/06/17 01:22:27;;;;;;;;;;;15.90;99.90;;;;;;5089990;28;20003;-61
2022/06/17 01:24:55;;;;;;;;;;;15.90;99.90;;;;;;5088502;28;20495;-61
2022/06/17 01:27:22;;;;;;;;;;;15.80;99.90;;;;;;5090410;28;19913;-61
2022/06/17 01:29:48;;;;;;;;;;;15.80;99.90;;;;;;5088898;28;19918;-61
2022/06/17 01:32:15;;;;;;;;;;;15.80;99.90;;;;;;5087379;28;20282;-61
2022/06/17 01:34:40;;;;;;;;;;;15.70;99.90;;;;;;5090375;28;20373;-62
2022/06/17 01:37:07;;;;;;;;;;;15.70;99.90;;;;;;5089122;28;19919;-61
2022/06/17 01:39:33;;;;;;;;;;;15.60;99.90;;;;;;5088788;28;19912;-61
2022/06/17 01:41:59;;;;;;;;;;;15.50;99.90;;;;;;5076689;28;20301;-61
2022/06/17 01:44:33;;;;;;;;;;;15.40;99.90;;;;;;5086849;28;19912;-61
2022/06/17 01:47:00;;;;;;;;;;;15.30;99.90;;;;;;5085954;28;20343;-60
2022/06/17 01:49:29;;;;;;;;;;;15.20;99.90;;;;;;5088927;28;19912;-61
2022/06/17 01:51:56;;;;;;;;;;;15.10;99.90;;;;;;5086685;28;19935;-62
2022/06/17 01:54:25;;;;;;;;;;;15.00;99.90;;;;;;5087597;28;19912;-61
2022/06/17 01:56:53;;;;;;;;;;;15.00;99.90;;;;;;5089981;28;20376;-61
2022/06/17 01:59:27;;;;;;;;;;;15.00;99.90;;;;;;5087414;28;20380;-61
2022/06/17 02:01:54;;;;;;;;;;;15.00;99.90;;;;;;5087558;28;19920;-60
2022/06/17 02:04:23;;;;;;;;;;;15.10;99.90;;;;;;5089933;28;19919;-61
2022/06/17 02:06:58;;;;;;;;;;;15.10;99.90;;;;;;5089191;28;19923;-61
2022/06/17 02:09:23;;;;;;;;;;;15.10;99.90;;;;;;5088300;28;20003;-61
2022/06/17 02:11:49;;;;;;;;;;;15.10;99.90;;;;;;5086819;28;20101;-61
2022/06/17 02:14:15;;;;;;;;;;;15.20;99.90;;;;;;5087853;28;19967;-61
2022/06/17 02:16:42;;;;;;;;;;;15.20;99.90;;;;;;5086349;28;19912;-61
2022/06/17 02:19:08;;;;;;;;;;;15.20;99.90;;;;;;5088177;28;19921;-60
2022/06/17 02:21:37;;;;;;;;;;;15.20;99.90;;;;;;5088709;28;20257;-61
2022/06/17 02:24:03;;;;;;;;;;;15.30;99.90;;;;;;5088289;28;20295;-61
2022/06/17 02:26:30;;;;;;;;;;;15.30;99.90;;;;;;5085425;28;19912;-61
2022/06/17 02:28:55;;;;;;;;;;;15.20;99.90;;;;;;5084478;28;20002;-61
2022/06/17 02:31:21;;;;;;;;;;;15.20;99.90;;;;;;5081695;28;20318;-61
2022/06/17 02:33:49;;;;;;;;;;;15.10;99.90;;;;;;5088233;28;19970;-61
2022/06/17 02:36:34;;;;;;;;;;;15.10;99.90;;;;;;5089389;28;20276;-61
2022/06/17 02:39:00;;;;;;;;;;;15.00;99.90;;;;;;5082611;28;19930;-61
2022/06/17 02:41:27;;;;;;;;;;;15.00;99.90;;;;;;5069136;28;19912;-61
2022/06/17 02:43:59;;;;;;;;;;;15.00;99.90;;;;;;5085119;28;19924;-61
2022/06/17 02:46:29;;;;;;;;;;;15.00;99.90;;;;;;5084786;28;19956;-61
2022/06/17 02:49:00;;;;;;;;;;;15.00;99.90;;;;;;5068527;28;19912;-60
2022/06/17 02:51:29;;;;;;;;;;;15.00;99.90;;;;;;5086001;28;20365;-61
2022/06/17 02:53:55;;;;;;;;;;;15.10;99.90;;;;;;5086902;28;19920;-61
2022/06/17 02:56:24;;;;;;;;;;;15.10;99.90;;;;;;5088005;28;19912;-61
2022/06/17 02:58:54;;;;;;;;;;;15.10;99.90;;;;;;5086772;28;20396;-61
2022/06/17 03:01:21;;;;;;;;;;;15.10;99.90;;;;;;5085640;28;19917;-61
2022/06/17 03:03:48;;;;;;;;;;;15.10;99.90;;;;;;5088429;28;19935;-62
2022/06/17 03:06:19;;;;;;;;;;;15.10;99.90;;;;;;5085015;28;19951;-60
2022/06/17 03:08:47;;;;;;;;;;;15.20;99.90;;;;;;5086239;28;19934;-60
2022/06/17 03:11:12;;;;;;;;;;;15.20;99.90;;;;;;5087219;28;20357;-61
2022/06/17 03:13:42;;;;;;;;;;;15.30;99.90;;;;;;5087871;28;19932;-61
2022/06/17 03:16:09;;;;;;;;;;;15.30;99.90;;;;;;5089134;28;19919;-61
2022/06/17 03:18:35;;;;;;;;;;;15.30;99.90;;;;;;5086975;28;19912;-60
2022/06/17 03:21:01;;;;;;;;;;;15.40;99.90;;;;;;5084371;28;20328;-61
2022/06/17 03:23:35;;;;;;;;;;;15.60;99.90;;;;;;5087441;28;20427;-61
2022/06/17 03:26:11;;;;;;;;;;;15.40;99.90;;;;;;5084733;28;19912;-61
2022/06/17 03:28:42;;;;;;;;;;;15.30;99.90;;;;;;5085779;28;19918;-61
2022/06/17 03:31:14;;;;;;;;;;;15.30;99.90;;;;;;5086064;28;19958;-61
2022/06/17 03:33:57;;;;;;;;;;;15.30;99.90;;;;;;5085866;28;19916;-61
2022/06/17 03:36:45;;;;;;;;;;;15.30;99.90;;;;;;5080550;28;20311;-60
2022/06/17 03:39:31;;;;;;;;;;;15.20;99.90;;;;;;5038320;28;20015;-61
2022/06/17 03:42:00;;;;;;;;;;;15.20;99.90;;;;;;5087986;28;19912;-61
2022/06/17 03:44:34;;;;;;;;;;;15.30;99.90;;;;;;5086150;28;20275;-61
2022/06/17 03:47:03;;;;;;;;;;;15.30;99.90;;;;;;5088839;28;19912;-60
2022/06/17 03:49:40;;;;;;;;;;;15.20;99.90;;;;;;5068283;28;20053;-60
2022/06/17 03:52:12;;;;;;;;;;;15.10;99.90;;;;;;5079659;28;19974;-60
2022/06/17 03:54:37;;;;;;;;;;;15.10;99.90;;;;;;5079612;28;19977;-60
2022/06/17 03:57:07;;;;;;;;;;;15.20;99.90;;;;;;5086001;28;19912;-61
2022/06/17 03:59:34;;;;;;;;;;;15.20;99.90;;;;;;5083046;28;19912;-60
2022/06/17 04:02:03;;;;;;;;;;;15.20;99.90;;;;;;5085385;28;19930;-61
2022/06/17 04:04:32;;;;;;;;;;;15.20;99.90;;;;;;5083026;28;19912;-60
2022/06/17 04:06:57;;;;;;;;;;;15.20;99.90;;;;;;5082613;28;19912;-61
2022/06/17 04:09:27;;;;;;;;;;;15.00;99.90;;;;;;5086239;28;19918;-61
2022/06/17 04:11:57;;;;;;;;;;;14.90;99.90;;;;;;5067316;28;19951;-61
2022/06/17 04:14:49;;;;;;;;;;;14.90;99.90;;;;;;5086099;28;20038;-61
2022/06/17 04:17:16;;;;;;;;;;;14.80;99.90;;;;;;5071421;28;19912;-61
2022/06/17 04:19:43;;;;;;;;;;;14.90;99.90;;;;;;5089482;28;19992;-62
2022/06/17 04:22:18;;;;;;;;;;;14.90;99.90;;;;;;5067408;28;19919;-61
2022/06/17 04:24:46;;;;;;;;;;;15.00;99.90;;;;;;5088432;28;20408;-62
2022/06/17 04:27:13;;;;;;;;;;;14.90;99.90;;;;;;5084817;28;19982;-60
2022/06/17 04:29:50;;;;;;;;;;;15.00;99.90;;;;;;5091656;28;20026;-60
2022/06/17 04:32:15;;;;;;;;;;;15.10;99.90;;;;;;5090326;28;19920;-61
2022/06/17 04:34:41;;;;;;;;;;;15.00;99.90;;;;;;5072252;28;19920;-60
2022/06/17 04:37:09;;;;;;;;;;;15.10;99.90;;;;;;5089852;28;19912;-60
2022/06/17 04:39:45;;;;;;;;;;;15.10;99.90;;;;;;5071726;28;19919;-61
2022/06/17 04:42:16;;;;;;;;;;;15.10;99.90;;;;;;5090208;28;19951;-62
2022/06/17 04:44:42;;;;;;;;;;;15.20;99.90;;;;;;5087139;28;20158;-61
2022/06/17 04:47:15;;;;;;;;;;;15.20;99.90;;;;;;5088146;28;20003;-61
2022/06/17 04:49:46;;;;;;;;;;;15.20;99.90;;;;;;5090409;28;20120;-61
2022/06/17 04:52:21;;;;;;;;;;;15.10;99.90;;;;;;5086792;28;19959;-60
2022/06/17 04:54:46;;;;;;;;;;;15.10;99.90;;;;;;5089168;28;20011;-60
2022/06/17 04:57:13;;;;;;;;;;;15.00;99.90;;;;;;5091165;28;20477;-61
2022/06/17 04:59:44;;;;;;;;;;;14.70;99.90;;;;;;5088139;28;20304;-61
2022/06/17 05:02:15;;;;;;;;;;;14.70;99.90;;;;;;5088711;28;19958;-61
2022/06/17 05:04:41;;;;;;;;;;;14.70;99.90;;;;;;5085209;28;19923;-61
2022/06/17 05:07:07;;;;;;;;;;;14.80;99.90;;;;;;5090582;28;19991;-61
2022/06/17 05:09:42;;;;;;;;;;;14.90;99.90;;;;;;5090938;28;20711;-62
2022/06/17 05:12:22;;;;;;;;;;;15.00;99.90;;;;;;5089410;28;19935;-62
2022/06/17 05:14:51;;;;;;;;;;;15.30;99.90;;;;;;5086093;28;21105;-61
2022/06/17 05:17:16;;;;;;;;;;;15.60;99.90;;;;;;5088503;28;19920;-62
2022/06/17 05:19:42;;;;;;;;;;;15.80;99.90;;;;;;5088459;28;20254;-61
2022/06/17 05:22:21;;;;;;;;;;;15.90;99.90;;;;;;5085402;28;20366;-60
2022/06/17 05:24:47;;;;;;;;;;;16.00;99.90;;;;;;5084107;28;19916;-60
2022/06/17 05:27:13;;;;;;;;;;;16.10;99.90;;;;;;5089926;28;19912;-61
2022/06/17 05:29:38;;;;;;;;;;;15.90;99.90;;;;;;5088861;28;20354;-61
2022/06/17 05:32:04;;;;;;;;;;;15.80;99.90;;;;;;5088795;28;19912;-61
2022/06/17 05:34:30;;;;;;;;;;;15.70;99.90;;;;;;5087241;28;19981;-61
2022/06/17 05:36:58;;;;;;;;;;;15.60;99.90;;;;;;5083208;28;22306;-61
2022/06/17 05:39:24;;;;;;;;;;;15.50;99.90;;;;;;5088492;28;19915;-62
2022/06/17 05:41:49;;;;;;;;;;;15.60;99.90;;;;;;5090038;28;20419;-61
2022/06/17 05:44:15;;;;;;;;;;;15.60;99.90;;;;;;5089816;28;20353;-61
2022/06/17 05:46:43;;;;;;;;;;;15.60;99.90;;;;;;5088420;28;19912;-61
2022/06/17 05:49:09;;;;;;;;;;;15.70;99.90;;;;;;5089371;28;19920;-60
2022/06/17 05:51:34;;;;;;;;;;;15.70;99.90;;;;;;5086683;28;19925;-61
2022/06/17 05:54:00;;;;;;;;;;;15.70;99.90;;;;;;5089777;28;19927;-61
2022/06/17 05:56:25;;;;;;;;;;;15.70;99.90;;;;;;5087227;28;19919;-62
2022/06/17 05:58:51;;;;;;;;;;;15.90;99.90;;;;;;5066901;28;19927;-61
2022/06/17 06:01:17;;;;;;;;;;;16.00;99.90;;;;;;5085374;28;20357;-61
2022/06/17 06:03:42;;;;;;;;;;;16.20;99.90;;;;;;5069714;28;19912;-61
2022/06/17 06:06:08;;;;;;;;;;;16.40;99.90;;;;;;5087891;28;19912;-61
2022/06/17 06:08:33;;;;;;;;;;;16.50;99.90;;;;;;5087366;28;19920;-61
2022/06/17 06:11:02;;;;;;;;;;;16.50;99.90;;;;;;5089382;28;19922;-61
2022/06/17 06:13:27;;;;;;;;;;;16.60;99.90;;;;;;5071014;28;19974;-61
2022/06/17 06:15:55;;;;;;;;;;;16.70;99.90;;;;;;5083528;28;19960;-61
2022/06/17 06:18:23;;;;;;;;;;;16.80;99.90;;;;;;5070210;28;20021;-61
2022/06/17 06:20:49;;;;;;;;;;;16.80;99.90;;;;;;5087308;28;19994;-62
2022/06/17 06:23:14;;;;;;;;;;;16.90;99.90;;;;;;5085250;28;20007;-61
2022/06/17 06:25:40;;;;;;;;;;;17.10;99.90;;;;;;5084488;28;19912;-62
2022/06/17 06:28:13;;;;;;;;;;;17.30;99.90;;;;;;5088092;28;19919;-61
2022/06/17 06:30:39;;;;;;;;;;;17.50;99.90;;;;;;5087502;28;19919;-61
2022/06/17 06:33:04;;;;;;;;;;;17.70;99.90;;;;;;5086095;28;19916;-61
2022/06/17 06:35:34;;;;;;;;;;;17.90;99.90;;;;;;5088821;28;20265;-61
2022/06/17 06:38:00;;;;;;;;;;;18.10;99.90;;;;;;5086626;28;20391;-61
2022/06/17 06:40:26;;;;;;;;;;;18.40;99.90;;;;;;5069193;28;19916;-61
2022/06/17 06:42:52;;;;;;;;;;;18.60;99.90;;;;;;5083500;28;20372;-61
2022/06/17 06:45:20;;;;;;;;;;;18.80;99.90;;;;;;5068652;28;19958;-62
2022/06/17 06:47:46;;;;;;;;;;;18.90;99.90;;;;;;5088811;28;19908;-62
2022/06/17 06:50:17;;;;;;;;;;;19.00;99.90;;;;;;5083375;28;19912;-61
2022/06/17 06:52:42;;;;;;;;;;;19.10;99.90;;;;;;5083655;28;19920;-62
2022/06/17 06:55:08;;;;;;;;;;;19.20;99.90;;;;;;5086499;28;19938;-61
2022/06/17 06:57:34;;;;;;;;;;;19.10;99.90;;;;;;5085237;28;19916;-62
2022/06/17 07:00:06;;;;;;;;;;;19.40;99.90;;;;;;5080866;28;19959;-61
2022/06/17 07:02:32;;;;;;;;;;;19.70;99.90;;;;;;5082290;28;19912;-61
2022/06/17 07:04:57;;;;;;;;;;;19.80;99.90;;;;;;5080212;28;19916;-61
2022/06/17 07:07:23;;;;;;;;;;;19.80;99.90;;;;;;5086572;28;19991;-61
2022/06/17 07:09:48;;;;;;;;;;;19.80;99.90;;;;;;5086553;28;19916;-61
2022/06/17 07:12:14;;;;;;;;;;;19.90;99.90;;;;;;5085229;28;19934;-62
2022/06/17 07:14:39;;;;;;;;;;;20.20;99.90;;;;;;5083465;28;19928;-61
2022/06/17 07:17:05;;;;;;;;;;;20.20;99.90;;;;;;5086894;28;19912;-62
2022/06/17 07:19:31;;;;;;;;;;;20.30;99.90;;;;;;5068717;28;19966;-61
2022/06/17 07:21:56;;;;;;;;;;;20.20;99.90;;;;;;5085616;28;20389;-62
2022/06/17 07:24:22;;;;;;;;;;;20.10;99.90;;;;;;5086624;28;19935;-62
2022/06/17 07:26:47;;;;;;;;;;;20.10;99.90;;;;;;5083570;28;20183;-63
2022/06/17 07:29:13;;;;;;;;;;;20.30;99.90;;;;;;5085930;28;20340;-62
2022/06/17 07:31:41;;;;;;;;;;;20.30;99.90;;;;;;5075670;28;20364;-62
2022/06/17 07:34:06;;;;;;;;;;;20.40;99.90;;;;;;5081579;28;20018;-62
2022/06/17 07:42:02;;;;;;;;;;;20.70;99.90;;;;;;5089215;28;19930;-61
2022/06/17 07:44:27;;;;;;;;;;;20.90;99.90;;;;;;5079484;28;19919;-62
2022/06/17 07:46:53;;;;;;;;;;;20.90;99.70;;;;;;5086560;28;19916;-62
2022/06/17 07:49:19;;;;;;;;;;;21.10;99.30;;;;;;5068000;28;19912;-62
2022/06/17 07:51:44;;;;;;;;;;;21.10;99.00;;;;;;5077289;28;19921;-62
2022/06/17 07:54:10;;;;;;;;;;;21.20;98.40;;;;;;5090453;28;20011;-62
2022/06/17 07:56:35;;;;;;;;;;;21.30;98.30;;;;;;5090309;28;19947;-60
2022/06/17 07:59:01;;;;;;;;;;;21.60;97.50;;;;;;5089370;28;19942;-62
2022/06/17 08:01:27;;;;;;;;;;;21.80;97.90;;;;;;5088429;28;19912;-61
2022/06/17 08:03:52;;;;;;;;;;;22.00;97.20;;;;;;5086565;28;19965;-62
2022/06/17 08:06:18;;;;;;;;;;;22.10;96.40;;;;;;5090461;28;19912;-62
2022/06/17 08:08:44;;;;;;;;;;;22.20;97.20;;;;;;5088777;28;19912;-63
2022/06/17 08:11:10;;;;;;;;;;;22.40;96.30;;;;;;5089089;28;20004;-62
2022/06/17 08:13:36;;;;;;;;;;;22.50;95.90;;;;;;5071735;28;19920;-63
2022/06/17 08:16:03;;;;;;;;;;;22.60;95.80;;;;;;5088512;28;19920;-63
2022/06/17 08:18:29;;;;;;;;;;;22.70;95.50;;;;;;5086895;28;19920;-63
2022/06/17 08:20:54;;;;;;;;;;;22.90;95.20;;;;;;5090475;28;20324;-62
2022/06/17 08:23:21;;;;;;;;;;;23.00;95.00;;;;;;5090009;28;19908;-61
2022/06/17 08:25:46;;;;;;;;;;;23.10;94.70;;;;;;5087254;28;19916;-62
2022/06/17 08:28:13;;;;;;;;;;;23.20;94.80;;;;;;5088636;28;19953;-61
2022/06/17 08:30:40;;;;;;;;;;;23.30;95.20;;;;;;5090937;28;19916;-61
2022/06/17 08:33:06;;;;;;;;;;;23.30;95.30;;;;;;5070626;28;19924;-61
2022/06/17 08:35:34;;;;;;;;;;;23.50;94.70;;;;;;5090885;28;19965;-62
2022/06/17 08:38:08;;;;;;;;;;;23.70;94.20;;;;;;5084692;28;19920;-62
2022/06/17 08:40:55;;;;;;;;;;;23.80;93.20;;;;;;5087130;28;19984;-62
2022/06/17 08:43:39;;;;;;;;;;;24.00;92.80;;;;;;5077240;28;19919;-62
2022/06/17 08:46:17;;;;;;;;;;;24.10;92.30;;;;;;5092161;28;19998;-62
2022/06/17 08:48:45;;;;;;;;;;;24.30;92.20;;;;;;5088046;28;20324;-62
2022/06/17 08:51:15;;;;;;;;;;;24.40;92.20;;;;;;5083948;28;19943;-61
2022/06/17 08:53:44;;;;;;;;;;;24.50;92.20;;;;;;5093566;28;19916;-62
2022/06/17 08:56:30;;;;;;;;;;;24.70;91.00;;;;;;5091655;28;20332;-62
2022/06/17 08:59:14;;;;;;;;;;;24.60;90.60;;;;;;5069561;28;19912;-62
2022/06/17 09:01:45;;;;;;;;;;;24.70;90.60;;;;;;5092773;28;20285;-63
2022/06/17 09:04:29;;;;;;;;;;;24.80;90.30;;;;;;5086567;28;19919;-62
2022/06/17 09:07:04;;;;;;;;;;;25.00;90.50;;;;;;5069783;28;19919;-62
2022/06/17 09:09:45;;;;;;;;;;;25.10;90.20;;;;;;5091579;28;19920;-61
2022/06/17 09:12:16;;;;;;;;;;;25.10;89.20;;;;;;5080391;28;19972;-61
2022/06/17 09:14:53;;;;;;;;;;;25.30;89.70;;;;;;5074612;28;20787;-62
2022/06/17 09:17:29;;;;;;;;;;;25.40;89.20;;;;;;5082208;28;19913;-63
2022/06/17 09:19:58;;;;;;;;;;;25.40;89.30;;;;;;5085025;28;19912;-62
2022/06/17 09:22:28;;;;;;;;;;;25.50;89.60;;;;;;5086237;28;19912;-63
2022/06/17 09:24:55;;;;;;;;;;;25.60;89.10;;;;;;5083732;28;19920;-62
2022/06/17 09:27:23;;;;;;;;;;;25.60;89.70;;;;;;5087366;28;19912;-61
2022/06/17 09:30:09;;;;;;;;;;;25.70;89.70;;;;;;5089707;28;20223;-62
2022/06/17 09:32:41;;;;;;;;;;;25.80;89.30;;;;;;5073508;28;20388;-62
2022/06/17 09:35:09;;;;;;;;;;;25.90;89.50;;;;;;5088749;28;19921;-62
2022/06/17 09:37:42;;;;;;;;;;;26.00;89.70;;;;;;5087807;28;19923;-61
2022/06/17 09:40:15;;;;;;;;;;;26.10;90.00;;;;;;5088340;28;20340;-62
2022/06/17 09:42:44;;;;;;;;;;;26.20;89.70;;;;;;5086428;28;19920;-62
2022/06/17 09:45:25;;;;;;;;;;;26.30;89.60;;;;;;5069606;28;19919;-62
2022/06/17 09:48:06;;;;;;;;;;;26.30;89.90;;;;;;5084515;28;19912;-61
2022/06/17 09:50:37;;;;;;;;;;;26.00;90.10;;;;;;5086279;28;19919;-62
2022/06/17 09:53:08;;;;;;;;;;;26.00;90.40;;;;;;5090470;28;20392;-61
2022/06/17 09:55:37;;;;;;;;;;;26.20;90.50;;;;;;5088940;28;19973;-61
2022/06/17 09:58:06;;;;;;;;;;;26.30;90.20;;;;;;5086091;28;20160;-61
2022/06/17 10:00:38;;;;;;;;;;;26.30;90.20;;;;;;5084145;28;20231;-62
2022/06/17 10:03:24;;;;;;;;;;;26.60;90.00;;;;;;5087692;28;20054;-62
2022/06/17 10:05:56;;;;;;;;;;;26.60;90.10;;;;;;5066192;28;19916;-62
2022/06/17 10:08:37;;;;;;;;;;;26.60;89.80;;;;;;5094227;28;20377;-62
2022/06/17 10:11:11;;;;;;;;;;;26.70;90.10;;;;;;5089527;28;19920;-62
2022/06/17 10:13:46;;;;;;;;;;;26.80;90.10;;;;;;5085661;28;20018;-61
2022/06/17 10:19:33;;;;;;;;;;;26.90;89.90;;;;;;5087102;28;19942;-63
2022/06/17 10:21:58;;;;;;;;;;;26.90;89.30;;;;;;5085623;28;19993;-62
2022/06/17 10:24:29;;;;;;;;;;;26.90;88.80;;;;;;5088768;28;20059;-62
2022/06/17 10:26:58;;;;;;;;;;;26.90;89.20;;;;;;5087877;28;20558;-62
2022/06/17 10:29:23;;;;;;;;;;;27.10;89.10;;;;;;5087728;28;19919;-62
2022/06/17 10:31:51;;;;;;;;;;;27.20;87.40;;;;;;5083949;28;19912;-62
2022/06/17 10:34:35;;;;;;;;;;;27.30;87.30;;;;;;5088405;28;19916;-62
2022/06/17 10:37:01;;;;;;;;;;;27.30;87.30;;;;;;5087853;28;19916;-61
2022/06/17 10:39:28;;;;;;;;;;;27.40;84.40;;;;;;5085309;28;19919;-61
2022/06/17 10:41:55;;;;;;;;;;;27.40;84.60;;;;;;5068731;28;19927;-61
2022/06/17 10:44:23;;;;;;;;;;;27.50;84.20;;;;;;5088607;28;20320;-61
2022/06/17 10:46:56;;;;;;;;;;;27.60;83.70;;;;;;5069642;28;19912;-61
2022/06/17 10:49:25;;;;;;;;;;;27.60;83.70;;;;;;5086087;28;19999;-61
2022/06/17 10:51:51;;;;;;;;;;;27.80;81.70;;;;;;5087249;28;19951;-62
2022/06/17 10:54:21;;;;;;;;;;;27.70;82.10;;;;;;5087256;28;19922;-63
2022/06/17 10:57:05;;;;;;;;;;;27.70;81.70;;;;;;5086178;28;19924;-62
2022/06/17 10:59:39;;;;;;;;;;;27.90;81.40;;;;;;5081847;28;20266;-62
2022/06/17 11:02:23;;;;;;;;;;;28.00;81.30;;;;;;5081152;28;19916;-61
2022/06/17 11:04:49;;;;;;;;;;;27.90;81.20;;;;;;5083670;28;19923;-62
2022/06/17 11:07:17;;;;;;;;;;;27.90;81.80;;;;;;5089142;28;19923;-61
2022/06/17 11:09:51;;;;;;;;;;;27.80;82.70;;;;;;5088225;28;19919;-62
2022/06/17 11:12:21;;;;;;;;;;;28.00;82.10;;;;;;5080241;28;20365;-61
2022/06/17 11:14:46;;;;;;;;;;;28.10;81.80;;;;;;5065938;28;19920;-63
2022/06/17 11:17:15;;;;;;;;;;;28.20;80.70;;;;;;5082978;28;19912;-61
2022/06/17 11:19:42;;;;;;;;;;;28.00;81.10;;;;;;5067177;28;19938;-62
2022/06/17 11:22:15;;;;;;;;;;;27.80;82.30;;;;;;5065621;28;19919;-62
2022/06/17 11:24:41;;;;;;;;;;;27.70;82.30;;;;;;5083305;28;19912;-62
2022/06/17 11:27:27;;;;;;;;;;;27.80;82.40;;;;;;5083379;28;19916;-62
2022/06/17 11:29:54;;;;;;;;;;;27.90;82.60;;;;;;5084749;28;19916;-62
2022/06/17 11:32:20;;;;;;;;;;;28.20;81.10;;;;;;5083558;28;20249;-61
2022/06/17 11:34:56;;;;;;;;;;;28.20;81.60;;;;;;5087857;28;19919;-60
2022/06/17 11:37:32;;;;;;;;;;;28.30;81.50;;;;;;5085182;28;20011;-61
2022/06/17 11:40:16;;;;;;;;;;;28.50;81.20;;;;;;5082244;28;20003;-62
2022/06/17 11:42:46;;;;;;;;;;;28.70;81.00;;;;;;5085586;28;19935;-61
2022/06/17 11:45:16;;;;;;;;;;;28.70;80.60;;;;;;5085694;28;19912;-62
2022/06/17 11:47:45;;;;;;;;;;;28.40;80.80;;;;;;5087922;28;19916;-61
2022/06/17 11:50:16;;;;;;;;;;;28.20;81.50;;;;;;5085191;28;20343;-61
2022/06/17 11:52:42;;;;;;;;;;;28.10;82.30;;;;;;5082311;28;19920;-61
2022/06/17 11:55:09;;;;;;;;;;;28.10;82.70;;;;;;5086298;28;19998;-62
2022/06/17 11:57:37;;;;;;;;;;;28.40;82.00;;;;;;5082423;28;19912;-62
2022/06/17 12:00:07;;;;;;;;;;;28.70;81.60;;;;;;5082002;28;19912;-61
2022/06/17 12:02:32;;;;;;;;;;;28.80;80.80;;;;;;5084461;28;19912;-62
2022/06/17 12:05:07;;;;;;;;;;;28.90;80.20;;;;;;5068006;28;19950;-61
2022/06/17 12:07:40;;;;;;;;;;;28.70;80.60;;;;;;5082337;28;19916;-61
2022/06/17 12:10:06;;;;;;;;;;;28.80;80.90;;;;;;5087320;28;20085;-62
2022/06/17 12:12:33;;;;;;;;;;;28.80;80.30;;;;;;5067694;28;20015;-61
2022/06/17 12:15:06;;;;;;;;;;;28.90;81.70;;;;;;5089199;28;19931;-61
2022/06/17 12:17:32;;;;;;;;;;;28.90;81.00;;;;;;5085474;28;19916;-62
2022/06/17 12:19:58;;;;;;;;;;;29.00;80.30;;;;;;5087493;28;20009;-62
2022/06/17 12:22:44;;;;;;;;;;;28.90;80.60;;;;;;5079640;28;20006;-61
2022/06/17 12:25:13;;;;;;;;;;;29.00;80.60;;;;;;5067546;28;19912;-61
2022/06/17 12:27:47;;;;;;;;;;;29.20;79.80;;;;;;5089592;28;19935;-62
2022/06/17 12:30:14;;;;;;;;;;;29.10;80.60;;;;;;5088045;28;19987;-62
2022/06/17 12:32:45;;;;;;;;;;;29.30;80.10;;;;;;5088568;28;19927;-62
2022/06/17 12:35:17;;;;;;;;;;;29.60;79.40;;;;;;5086303;28;19912;-61
2022/06/17 12:37:46;;;;;;;;;;;29.70;79.10;;;;;;5069879;28;19916;-62
2022/06/17 12:40:30;;;;;;;;;;;29.70;79.20;;;;;;5083819;28;19931;-62
2022/06/17 12:43:14;;;;;;;;;;;29.70;78.30;;;;;;5089374;28;20369;-62
2022/06/17 12:45:58;;;;;;;;;;;29.60;78.30;;;;;;5087073;28;20311;-61
2022/06/17 12:48:24;;;;;;;;;;;29.60;78.40;;;;;;5080889;28;19920;-62
2022/06/17 12:54:05;;;;;;;;;;;29.80;78.80;;;;;;5094426;28;19927;-62
2022/06/17 12:56:34;;;;;;;;;;;30.00;78.10;;;;;;5086123;28;19924;-62
2022/06/17 12:59:07;;;;;;;;;;;29.70;79.10;;;;;;5066063;28;19919;-62
2022/06/17 13:01:36;;;;;;;;;;;29.70;78.90;;;;;;5084595;28;20000;-62
2022/06/17 13:04:10;;;;;;;;;;;29.70;79.20;;;;;;5084952;28;20383;-61
2022/06/17 13:06:39;;;;;;;;;;;29.90;79.20;;;;;;5084726;28;20281;-62
2022/06/17 13:09:13;;;;;;;;;;;29.80;79.50;;;;;;5088876;28;20450;-61
2022/06/17 13:12:11;;;;;;;;;;;29.80;79.30;;;;;;5089125;28;19998;-63
2022/06/17 13:14:56;;;;;;;;;;;29.90;79.40;;;;;;5032674;28;20340;-62
2022/06/17 13:17:33;;;;;;;;;;;30.00;79.10;;;;;;5078637;28;20925;-63
2022/06/17 13:20:08;;;;;;;;;;;29.90;79.60;;;;;;5085140;28;19928;-62
2022/06/17 13:22:47;;;;;;;;;;;30.00;79.60;;;;;;5086538;28;20364;-63
2022/06/17 13:25:24;;;;;;;;;;;30.40;79.40;;;;;;5086008;28;19920;-62
2022/06/17 13:27:58;;;;;;;;;;;30.20;79.00;;;;;;5071457;28;19912;-62
2022/06/17 13:30:25;;;;;;;;;;;30.10;79.80;;;;;;5069589;28;19930;-64
2022/06/17 13:32:57;;;;;;;;;;;30.10;79.70;;;;;;5087836;28;19919;-62
2022/06/17 13:35:29;;;;;;;;;;;30.20;80.10;;;;;;5088712;28;20369;-63
2022/06/17 13:38:18;;;;;;;;;;;30.20;79.60;;;;;;5089282;28;20316;-64
2022/06/17 13:40:52;;;;;;;;;;;30.20;79.90;;;;;;5067712;28;19957;-61
2022/06/17 13:43:23;;;;;;;;;;;30.30;79.60;;;;;;5089973;28;20365;-63
2022/06/17 13:46:06;;;;;;;;;;;30.50;79.40;;;;;;5087633;28;19916;-61
2022/06/17 13:48:46;;;;;;;;;;;30.60;80.00;;;;;;5088705;28;19977;-62
2022/06/17 13:51:22;;;;;;;;;;;30.80;80.00;;;;;;5080354;28;19912;-62
2022/06/17 13:54:06;;;;;;;;;;;30.90;79.70;;;;;;5061249;28;19990;-62
2022/06/17 13:56:40;;;;;;;;;;;30.80;80.20;;;;;;5079933;28;20002;-61
2022/06/17 13:59:17;;;;;;;;;;;30.70;80.00;;;;;;5079829;28;20369;-61
2022/06/17 14:01:45;;;;;;;;;;;30.30;80.50;;;;;;5069668;28;20298;-62
2022/06/17 14:04:12;;;;;;;;;;;30.20;81.00;;;;;;5067477;28;19923;-61
2022/06/17 14:06:48;;;;;;;;;;;30.00;81.00;;;;;;5090166;28;19909;-61
2022/06/17 14:09:37;;;;;;;;;;;30.00;81.40;;;;;;5090479;28;19912;-62
2022/06/17 14:12:03;;;;;;;;;;;29.80;82.30;;;;;;5073890;28;19923;-62
2022/06/17 14:14:29;;;;;;;;;;;29.80;82.50;;;;;;5087334;28;19959;-60
2022/06/17 14:16:57;;;;;;;;;;;29.80;81.20;;;;;;5083968;28;20377;-61
2022/06/17 14:19:31;;;;;;;;;;;29.70;81.50;;;;;;5087627;28;19970;-61
2022/06/17 14:21:58;;;;;;;;;;;29.50;82.60;;;;;;5086007;28;19912;-61
2022/06/17 14:24:42;;;;;;;;;;;29.50;82.60;;;;;;5087691;28;19985;-61
2022/06/17 14:27:33;;;;;;;;;;;29.50;83.00;;;;;;5089921;28;19961;-62
2022/06/17 14:30:11;;;;;;;;;;;29.70;82.70;;;;;;5084374;28;20305;-62
2022/06/17 14:32:52;;;;;;;;;;;29.60;82.80;;;;;;5086338;28;19977;-62
2022/06/17 14:35:24;;;;;;;;;;;29.60;82.60;;;;;;5086346;28;19980;-61
2022/06/17 14:37:50;;;;;;;;;;;29.80;82.40;;;;;;5081109;28;19952;-62
2022/06/17 14:40:19;;;;;;;;;;;30.30;81.60;;;;;;5086644;28;20345;-63
2022/06/17 14:43:03;;;;;;;;;;;31.20;79.10;;;;;;5086301;28;20007;-63
2022/06/17 14:45:49;;;;;;;;;;;31.40;78.20;;;;;;5084847;28;20400;-64